Time;durP1;ratioP1;P1;durP2;ratioP2;P2;SDS_P1;SDS_P2;PMS_P1;PMS_P2;Temp;Humidity;BMP_temperature;BMP_pressure;BME280_temperature;BME280_humidity;BME280_pressure;Samples;Min_cycle;Max_cycle;Signal;HPM_P1;HPM_P2
2022/03/22 07:59:06;;;;;;;38.33;24.02;;;;;;;10.32;64.35;103027.22;5268852;28;20763;-68
2022/03/22 08:01:37;;;;;;;29.48;20.65;;;;;;;10.53;68.10;103027.78;5258422;28;20029;-69
2022/03/22 08:04:08;;;;;;;107.65;31.40;;;;;;;10.57;63.90;103024.28;5258974;28;20061;-69
2022/03/22 08:06:43;;;;;;;35.92;21.90;;;;;;;10.69;64.52;103027.09;5257359;28;20099;-69
2022/03/22 08:09:14;;;;;;;45.58;35.00;;;;;;;10.74;62.43;103027.25;5237514;28;20029;-68
2022/03/22 08:11:50;;;;;;;33.90;24.42;;;;;;;10.79;61.90;103027.38;5263858;28;20472;-68
2022/03/22 08:14:21;;;;;;;31.42;24.95;;;;;;;10.91;60.76;103027.38;5258971;28;20113;-69
2022/03/22 08:16:53;;;;;;;33.10;23.48;;;;;;;10.96;60.57;103023.88;5258260;28;20105;-69
2022/03/22 08:19:28;;;;;;;34.88;21.83;;;;;;;11.14;62.62;103031.28;5258024;28;20029;-69
2022/03/22 08:22:00;;;;;;;38.97;25.60;;;;;;;11.19;61.03;103029.47;5258677;28;20476;-69
2022/03/22 08:24:34;;;;;;;30.58;22.00;;;;;;;11.25;59.50;103039.63;5258498;28;20040;-69
2022/03/22 08:27:11;;;;;;;33.72;24.23;;;;;;;11.36;59.42;103031.53;5259412;28;20035;-69
2022/03/22 08:29:42;;;;;;;30.65;23.15;;;;;;;11.46;58.77;103031.78;5257888;28;20045;-71
2022/03/22 08:32:14;;;;;;;33.63;23.17;;;;;;;11.53;57.91;103033.34;5258480;28;20032;-70
2022/03/22 08:34:50;;;;;;;28.52;22.77;;;;;;;11.64;57.29;103031.63;5258264;28;20017;-67
2022/03/22 08:37:21;;;;;;;;;;;;;;;11.72;57.93;103028.47;5257716;28;20389;-68
2022/03/22 08:39:52;;;;;;;30.13;22.73;;;;;;;11.81;56.75;103028.06;5258765;28;19917;-70
2022/03/22 08:42:24;;;;;;;30.05;22.58;;;;;;;11.92;56.33;103039.22;5258426;28;20418;-72
2022/03/22 08:44:55;;;;;;;35.92;21.77;;;;;;;12.14;60.39;103024.63;5257251;28;20037;-73
2022/03/22 08:47:27;;;;;;;30.77;22.00;;;;;;;12.15;55.38;103032.75;5258110;28;20037;-75
2022/03/22 08:49:59;;;;;;;29.90;21.20;;;;;;;12.21;54.82;103036.47;5257776;28;20022;-73
2022/03/22 08:52:32;;;;;;;47.53;40.28;;;;;;;12.30;55.71;103031.38;5257512;28;20041;-72
2022/03/22 08:55:07;;;;;;;65.60;50.15;;;;;;;12.38;54.61;103030.97;5257470;28;20104;-74
2022/03/22 08:57:39;;;;;;;34.85;24.73;;;;;;;12.47;54.88;103034.19;5257076;28;20049;-71
2022/03/22 09:00:11;;;;;;;29.27;24.42;;;;;;;12.55;54.67;103036.56;5257160;28;20053;-70
2022/03/22 09:02:45;;;;;;;29.55;22.92;;;;;;;12.67;54.43;103034.56;5257929;28;20500;-71
2022/03/22 09:08:07;;;;;;;29.33;22.33;;;;;;;12.83;52.80;103038.44;5257333;28;20041;-71
2022/03/22 09:10:38;;;;;;;30.13;20.80;;;;;;;12.88;53.06;103035.75;5243712;28;20022;-71
2022/03/22 09:13:10;;;;;;;23.65;20.58;;;;;;;12.99;52.34;103034.84;5242510;28;20025;-71
2022/03/22 09:15:41;;;;;;;28.20;21.52;;;;;;;13.03;52.12;103027.66;5243850;28;20087;-71
2022/03/22 09:18:13;;;;;;;29.45;23.13;;;;;;;13.18;51.58;103029.03;5244247;28;20029;-71
2022/03/22 09:20:45;;;;;;;32.80;23.35;;;;;;;13.23;51.46;103029.09;5243944;28;20034;-71
2022/03/22 09:23:17;;;;;;;26.42;21.80;;;;;;;13.27;51.12;103027.53;5244250;28;20071;-71
2022/03/22 09:25:51;;;;;;;27.25;21.75;;;;;;;13.38;50.66;103028.53;5242544;28;20037;-71
2022/03/22 09:28:22;;;;;;;28.30;22.63;;;;;;;13.47;50.89;103033.41;5243288;28;20128;-71
2022/03/22 09:30:54;;;;;;;30.77;22.23;;;;;;;13.55;50.72;103023.78;5243130;28;20484;-71
2022/03/22 09:33:25;;;;;;;29.35;22.75;;;;;;;13.58;48.97;103022.41;5242715;28;20034;-71
2022/03/22 09:35:57;;;;;;;37.95;21.77;;;;;;;13.68;48.92;103023.38;5242905;28;20029;-71
2022/03/22 09:38:29;;;;;;;26.63;21.60;;;;;;;13.69;49.12;103024.22;5244165;28;20144;-71
2022/03/22 09:41:00;;;;;;;29.25;22.65;;;;;;;13.76;49.21;103024.88;5242432;28;20029;-71
2022/03/22 09:43:33;;;;;;;28.30;21.30;;;;;;;13.81;49.17;103027.75;5243127;28;20029;-71
2022/03/22 09:46:07;;;;;;;31.75;22.70;;;;;;;13.95;49.68;103027.34;5243544;28;20025;-71
2022/03/22 09:48:39;;;;;;;34.38;22.67;;;;;;;14.01;49.33;103024.38;5242795;28;20091;-71
2022/03/22 09:54:01;;;;;;;29.13;22.58;;;;;;;14.21;48.57;103025.72;5242992;28;20029;-71
2022/03/22 09:56:32;;;;;;;32.13;23.30;;;;;;;14.25;49.16;103015.72;5243493;28;20468;-71
2022/03/22 09:59:06;;;;;;;35.58;25.00;;;;;;;14.31;48.02;103021.06;5243143;28;20049;-71
2022/03/22 10:01:38;;;;;;;29.35;24.45;;;;;;;14.32;48.00;103020.00;5241818;28;20021;-71
2022/03/22 10:04:13;;;;;;;35.35;24.13;;;;;;;14.42;48.13;103018.41;5242837;28;20140;-70
2022/03/22 10:06:47;;;;;;;29.08;24.02;;;;;;;14.49;47.00;103013.44;5243382;28;20487;-71
2022/03/22 10:09:39;;;;;;;36.55;23.70;;;;;;;14.47;47.02;103018.44;5242349;28;20037;-72
2022/03/22 10:12:12;;;;;;;32.08;23.75;;;;;;;14.55;47.13;103009.66;5236285;28;20436;-71
2022/03/22 10:14:43;;;;;;;31.80;23.95;;;;;;;14.62;46.06;103010.25;5234034;28;20432;-70
2022/03/22 10:17:18;;;;;;;28.55;22.17;;;;;;;14.71;46.65;103008.69;5242318;28;20021;-72
2022/03/22 10:19:51;;;;;;;31.00;22.00;;;;;;;14.74;45.55;103007.31;5238131;28;20030;-72
2022/03/22 10:22:24;;;;;;;29.38;22.75;;;;;;;14.77;45.32;102999.22;5238704;28;20060;-71
2022/03/22 10:25:04;;;;;;;28.02;21.73;;;;;;;14.78;44.84;103011.28;5242105;28;20037;-74
2022/03/22 10:27:37;;;;;;;31.63;24.20;;;;;;;14.82;44.39;102998.44;5241694;28;20034;-72
2022/03/22 10:30:09;;;;;;;27.98;23.95;;;;;;;14.93;45.17;102999.34;5241094;28;20135;-74
2022/03/22 10:32:43;;;;;;;29.92;23.95;;;;;;;15.05;44.62;103004.78;5242968;28;20037;-74
2022/03/22 10:35:20;;;;;;;31.27;23.23;;;;;;;15.13;43.67;102999.50;5240082;28;20510;-71
2022/03/22 10:38:19;;;;;;;29.23;24.15;;;;;;;15.10;42.29;102997.25;5239477;28;20116;-71
2022/03/22 10:40:51;;;;;;;30.92;23.17;;;;;;;15.24;42.36;102994.84;5238984;28;20057;-72
2022/03/22 10:43:26;;;;;;;29.80;21.98;;;;;;;15.44;41.92;103002.50;5240097;28;20034;-72
2022/03/22 10:46:02;;;;;;;35.67;30.23;;;;;;;15.33;42.25;102997.97;5240291;28;20406;-72
2022/03/22 10:48:37;;;;;;;26.33;21.30;;;;;;;15.48;42.56;102995.28;5240218;28;20112;-71
2022/03/22 10:51:08;;;;;;;40.10;31.50;;;;;;;15.56;42.67;102980.78;5241393;28;20022;-73
2022/03/22 10:53:40;;;;;;;27.35;21.77;;;;;;;15.59;41.42;102985.81;5242183;28;20025;-74
2022/03/22 10:56:11;;;;;;;29.73;22.42;;;;;;;15.77;41.68;102992.09;5242560;28;20183;-74
2022/03/22 10:58:45;;;;;;;29.83;23.98;;;;;;;15.65;42.18;102990.34;5241190;28;20045;-74
2022/03/22 11:01:19;;;;;;;27.20;22.25;;;;;;;15.78;41.86;102993.78;5242350;28;20030;-73
2022/03/22 11:03:56;;;;;;;28.02;21.73;;;;;;;15.96;41.73;102987.69;5241230;28;20372;-74
2022/03/22 11:06:29;;;;;;;25.48;20.25;;;;;;;16.16;41.89;102984.13;5242072;28;20022;-73
2022/03/22 11:09:01;;;;;;;28.65;20.80;;;;;;;16.12;41.51;102984.94;5242163;28;20048;-73
2022/03/22 11:11:33;;;;;;;26.92;19.75;;;;;;;16.17;40.42;102983.00;5245457;28;20025;-73
2022/03/22 11:14:04;;;;;;;23.77;19.35;;;;;;;16.37;40.73;102985.00;5238902;28;20022;-72
2022/03/22 11:16:35;;;;;;;25.60;20.08;;;;;;;16.35;40.96;102981.66;5241187;28;20026;-71
2022/03/22 11:19:08;;;;;;;30.77;20.25;;;;;;;16.47;40.15;102978.59;5241012;28;20469;-73
2022/03/22 11:21:41;;;;;;;27.33;20.33;;;;;;;16.49;40.54;102977.19;5235951;28;20030;-71
2022/03/22 11:24:14;;;;;;;26.63;19.35;;;;;;;16.49;40.12;102980.00;5233904;28;20392;-71
2022/03/22 11:26:51;;;;;;;27.70;21.05;;;;;;;16.56;40.32;102978.88;5240372;28;20029;-71
2022/03/22 11:29:27;;;;;;;21.15;17.73;;;;;;;16.62;40.50;102969.38;5241993;28;20112;-71
2022/03/22 11:34:50;;;;;;;26.95;19.52;;;;;;;16.78;40.52;102970.25;5224828;28;20549;-74
2022/03/22 11:37:30;;;;;;;25.42;19.65;;;;;;;16.90;40.25;102974.44;5221497;28;20022;-74
2022/03/22 11:42:56;;;;;;;23.55;17.27;;;;;;;17.05;38.87;102964.31;5241566;28;20049;-72
2022/03/22 11:45:30;;;;;;;25.17;17.70;;;;;;;17.16;38.59;102963.19;5241306;28;20029;-72
2022/03/22 11:48:07;;;;;;;26.20;17.50;;;;;;;17.18;38.87;102955.34;5240129;28;20296;-73
2022/03/22 11:50:42;;;;;;;29.10;20.90;;;;;;;17.17;38.40;102962.06;5241420;28;20036;-72
2022/03/22 11:53:20;;;;;;;25.55;19.92;;;;;;;17.32;38.56;102962.03;5240536;28;20029;-73
2022/03/22 11:55:59;;;;;;;27.52;20.60;;;;;;;17.45;38.08;102954.13;5241106;28;20018;-72
2022/03/22 11:58:31;;;;;;;25.13;18.73;;;;;;;17.43;37.63;102960.03;5240455;28;20045;-71
2022/03/22 12:01:15;;;;;;;28.25;20.08;;;;;;;17.55;38.37;102959.72;5240331;28;20086;-73
2022/03/22 12:03:53;;;;;;;25.45;18.75;;;;;;;17.57;37.65;102947.09;5240965;28;20034;-75
2022/03/22 12:06:31;;;;;;;22.10;18.17;;;;;;;17.66;37.63;102955.72;5240937;28;20444;-75
2022/03/22 12:09:06;;;;;;;28.15;20.85;;;;;;;17.75;37.40;102958.81;5239587;28;20076;-73
2022/03/22 12:11:50;;;;;;;26.75;17.73;;;;;;;17.70;37.19;102953.22;5240755;28;20033;-72
2022/03/22 12:14:26;;;;;;;22.60;18.15;;;;;;;17.91;36.88;102951.19;5239461;28;20075;-71
2022/03/22 12:16:57;;;;;;;23.08;18.52;;;;;;;17.98;37.08;102946.09;5241146;28;20034;-73
2022/03/22 12:19:31;;;;;;;26.70;18.63;;;;;;;18.07;36.72;102940.69;5238377;28;20060;-74
2022/03/22 12:22:05;;;;;;;23.70;18.35;;;;;;;18.23;36.79;102933.88;5240102;28;20025;-73
2022/03/22 12:24:36;;;;;;;25.17;19.45;;;;;;;18.23;36.23;102934.69;5240944;28;20167;-74
2022/03/22 12:27:10;;;;;;;30.60;19.92;;;;;;;18.35;35.70;102937.13;5241153;28;20033;-74
2022/03/22 12:29:43;;;;;;;27.35;20.10;;;;;;;18.54;36.10;102934.47;5240351;28;20044;-74
2022/03/22 12:32:20;;;;;;;26.73;20.13;;;;;;;18.39;35.33;102928.97;5240002;28;20067;-73
2022/03/22 12:34:51;;;;;;;27.52;20.98;;;;;;;18.31;35.31;102923.97;5240231;28;20026;-74
2022/03/22 12:37:22;;;;;;;25.80;18.20;;;;;;;18.60;34.81;102927.66;5240227;28;20021;-73
2022/03/22 12:39:54;;;;;;;23.77;19.33;;;;;;;18.67;34.48;102919.75;5230070;28;20092;-71
2022/03/22 12:42:26;;;;;;;25.67;20.02;;;;;;;18.84;34.41;102912.84;5239577;28;20029;-73
2022/03/22 12:44:58;;;;;;;25.35;17.88;;;;;;;18.90;34.39;102914.50;5242961;28;20047;-75
2022/03/22 12:47:31;;;;;;;23.02;17.80;;;;;;;19.01;34.02;102913.25;5245208;28;20029;-71
2022/03/22 12:50:04;;;;;;;25.80;19.63;;;;;;;18.93;33.78;102911.09;5243941;28;20034;-72
2022/03/22 12:52:36;;;;;;;25.20;19.00;;;;;;;18.89;33.87;102910.00;5244542;28;20026;-70
2022/03/22 12:55:09;;;;;;;24.15;17.92;;;;;;;19.00;33.40;102907.94;5231949;28;20080;-69
2022/03/22 12:57:44;;;;;;;26.35;18.00;;;;;;;19.03;32.69;102904.53;5223034;28;20137;-70
2022/03/22 13:00:29;;;;;;;21.00;16.83;;;;;;;19.19;32.98;102905.19;5240527;28;20365;-70
2022/03/22 13:03:10;;;;;;;23.23;16.83;;;;;;;19.27;32.30;102904.53;5223950;28;20025;-71
2022/03/22 13:05:43;;;;;;;21.17;17.75;;;;;;;19.09;32.38;102898.53;5231749;28;20026;-74
2022/03/22 13:08:27;;;;;;;20.88;18.02;;;;;;;19.28;32.11;102889.34;5244244;28;20029;-73
2022/03/22 13:16:38;;;;;;;22.88;17.05;;;;;;;19.50;32.79;102889.59;5243633;28;20033;-76
2022/03/22 13:19:09;;;;;;;22.85;15.32;;;;;;;19.50;30.95;102881.16;5243043;28;20476;-74
2022/03/22 13:21:40;;;;;;;21.08;15.13;;;;;;;19.51;31.42;102874.41;5243382;28;20440;-74
2022/03/22 13:24:24;;;;;;;23.35;15.85;;;;;;;19.74;31.23;102877.53;5232687;28;20036;-74
2022/03/22 13:26:58;;;;;;;22.88;14.98;;;;;;;19.65;30.91;102874.50;5243949;28;20101;-75
2022/03/22 13:29:35;;;;;;;20.55;15.63;;;;;;;19.77;30.98;102871.28;5243098;28;20040;-74
2022/03/22 13:32:08;;;;;;;28.23;17.48;;;;;;;19.72;30.82;102865.72;5233157;28;20366;-75
2022/03/22 13:34:47;;;;;;;24.08;17.13;;;;;;;19.83;31.46;102860.78;5232433;28;20037;-75
2022/03/22 13:37:18;;;;;;;21.52;16.77;;;;;;;19.94;31.32;102863.16;5243880;28;20111;-75
2022/03/22 13:40:02;;;;;;;20.85;16.95;;;;;;;20.08;30.56;102865.19;5243324;28;20022;-75
2022/03/22 13:42:33;;;;;;;21.92;17.30;;;;;;;20.00;29.98;102865.88;5242551;28;20029;-75
2022/03/22 13:45:09;;;;;;;21.15;16.05;;;;;;;19.88;30.16;102857.88;5244006;28;20457;-75
2022/03/22 13:47:41;;;;;;;23.02;16.55;;;;;;;19.89;30.20;102854.78;5243544;28;20025;-74
2022/03/22 13:50:17;;;;;;;20.47;16.90;;;;;;;20.13;30.71;102843.41;5243656;28;20029;-73
2022/03/22 13:53:16;;;;;;;20.85;16.45;;;;;;;20.25;30.21;102845.75;5242426;28;20379;-74
2022/03/22 13:55:48;;;;;;;23.65;17.00;;;;;;;20.12;29.97;102843.69;5242578;28;20025;-73
2022/03/22 13:58:25;;;;;;;23.58;15.55;;;;;;;20.29;29.43;102845.97;5243233;28;20037;-73
2022/03/22 14:00:57;;;;;;;21.13;15.80;;;;;;;20.16;29.30;102847.59;5242026;28;20030;-73
2022/03/22 14:03:28;;;;;;;21.48;16.13;;;;;;;20.22;29.50;102842.69;5243347;28;20542;-73
2022/03/22 14:05:59;;;;;;;21.20;15.65;;;;;;;20.22;29.39;102843.53;5242683;28;20029;-74
2022/03/22 14:08:31;;;;;;;23.83;17.13;;;;;;;20.24;29.10;102848.88;5242865;28;20026;-73
2022/03/22 14:11:03;;;;;;;21.10;15.93;;;;;;;20.39;29.88;102840.97;5252633;28;20116;-74
2022/03/22 14:13:35;;;;;;;26.00;17.35;;;;;;;20.44;30.04;102840.06;5255871;28;20109;-74
2022/03/22 14:16:06;;;;;;;24.48;18.52;;;;;;;20.46;29.63;102842.59;5240733;28;20108;-71
2022/03/22 14:18:43;;;;;;;25.33;18.52;;;;;;;20.48;29.60;102846.75;5242779;28;20037;-75
2022/03/22 14:21:14;;;;;;;25.48;19.90;;;;;;;20.31;29.23;102843.69;5241676;28;20480;-74
2022/03/22 14:23:46;;;;;;;24.08;16.92;;;;;;;20.41;28.93;102833.06;5242419;28;20026;-72
2022/03/22 14:26:20;;;;;;;21.55;14.55;;;;;;;20.52;29.09;102835.69;5242549;28;20024;-73
2022/03/22 14:28:52;;;;;;;22.13;15.35;;;;;;;20.43;28.92;102829.94;5241963;28;20064;-72
2022/03/22 14:31:24;;;;;;;24.92;15.38;;;;;;;20.56;28.84;102828.34;5235100;28;20064;-74
2022/03/22 14:33:55;;;;;;;22.88;16.98;;;;;;;20.54;28.45;102831.47;5230330;28;20034;-74
2022/03/22 14:36:26;;;;;;;90.15;80.82;;;;;;;20.65;29.29;102837.72;5224817;28;20030;-74
2022/03/22 14:38:58;;;;;;;22.92;19.17;;;;;;;20.59;28.35;102827.72;5222034;28;20030;-74
2022/03/22 14:41:30;;;;;;;22.35;17.13;;;;;;;20.52;28.36;102827.25;5226365;28;20029;-74
2022/03/22 14:44:02;;;;;;;22.52;16.85;;;;;;;20.55;28.87;102827.47;5241664;28;20345;-74
2022/03/22 14:46:33;;;;;;;22.35;15.00;;;;;;;20.59;28.87;102828.53;5227475;28;20124;-75
2022/03/22 14:49:05;;;;;;;19.45;15.00;;;;;;;20.61;27.44;102819.78;5239560;28;20549;-75
2022/03/22 14:54:26;;;;;;;18.98;14.05;;;;;;;20.63;27.69;102817.47;5240780;28;20037;-74
2022/03/22 14:59:47;;;;;;;20.65;16.20;;;;;;;20.76;30.15;102819.50;5221632;28;20062;-74
2022/03/22 15:02:18;;;;;;;23.00;17.20;;;;;;;20.60;27.69;102818.09;5226976;28;20057;-75
2022/03/22 15:04:49;;;;;;;19.45;13.68;;;;;;;20.69;28.71;102815.41;5240552;28;20037;-75
2022/03/22 15:07:22;;;;;;;15.90;12.35;;;;;;;20.65;26.58;102820.00;5239980;28;20056;-76
2022/03/22 15:09:54;;;;;;;16.48;12.07;;;;;;;20.75;28.69;102814.97;5242126;28;20026;-76
2022/03/22 15:12:26;;;;;;;19.98;12.18;;;;;;;20.63;26.64;102821.16;5249452;28;20391;-75
2022/03/22 15:14:58;;;;;;;47.38;35.92;;;;;;;20.53;26.20;102823.25;5241817;28;20014;-71
2022/03/22 15:17:29;;;;;;;23.80;17.05;;;;;;;20.67;26.70;102814.88;5241317;28;20546;-75
2022/03/22 15:20:03;;;;;;;16.60;11.65;;;;;;;20.62;26.42;102815.81;5241230;28;20021;-75
2022/03/22 15:22:34;;;;;;;16.23;11.07;;;;;;;20.65;26.71;102801.09;5241389;28;20049;-75
2022/03/22 15:25:09;;;;;;;18.52;10.23;;;;;;;20.62;26.20;102804.53;5240682;28;20069;-75
2022/03/22 15:27:40;;;;;;;17.30;12.13;;;;;;;20.54;26.00;102802.41;5241401;28;20033;-75
2022/03/22 15:30:12;;;;;;;17.95;10.82;;;;;;;20.52;26.89;102804.69;5229854;28;20103;-76
2022/03/22 15:32:43;;;;;;;17.02;9.95;;;;;;;20.49;26.31;102802.50;5239754;28;20021;-75
2022/03/22 15:35:16;;;;;;;18.70;11.50;;;;;;;20.57;26.64;102802.66;5241385;28;20362;-74
2022/03/22 15:37:48;;;;;;;19.00;11.80;;;;;;;20.53;27.07;102800.72;5240230;28;20029;-76
2022/03/22 15:40:19;;;;;;;17.52;11.15;;;;;;;20.48;26.40;102796.03;5240321;28;20449;-80
2022/03/22 15:42:51;;;;;;;15.10;10.60;;;;;;;20.56;26.44;102794.50;5239530;28;20017;-78
2022/03/22 15:45:23;;;;;;;16.10;10.75;;;;;;;20.49;26.78;102789.25;5240339;28;20045;-78
2022/03/22 15:47:55;;;;;;;18.60;11.77;;;;;;;20.54;27.45;102785.50;5241082;28;20037;-77
2022/03/22 15:50:29;;;;;;;20.77;10.93;;;;;;;20.30;26.46;102785.63;5240977;28;20105;-78
2022/03/22 15:53:04;;;;;;;15.40;10.60;;;;;;;20.18;26.99;102780.50;5240906;28;20075;-75
2022/03/22 15:55:37;;;;;;;17.40;10.50;;;;;;;20.17;26.84;102776.00;5240927;28;20021;-75
2022/03/22 15:58:09;;;;;;;16.70;10.57;;;;;;;20.20;26.99;102783.88;5240724;28;20041;-75
2022/03/22 16:00:41;;;;;;;18.50;9.90;;;;;;;20.16;27.06;102779.97;5240660;28;20442;-76
2022/03/22 16:03:12;;;;;;;19.77;10.38;;;;;;;20.10;26.81;102773.59;5241316;28;20112;-74
2022/03/22 16:05:44;;;;;;;13.68;10.38;;;;;;;19.96;26.89;102784.81;5240550;28;20021;-75
2022/03/22 16:08:16;;;;;;;17.40;10.35;;;;;;;20.09;27.51;102786.00;5239990;28;20037;-75
2022/03/22 16:10:47;;;;;;;20.85;11.25;;;;;;;20.14;27.49;102785.91;5241549;28;20017;-76
2022/03/22 16:13:18;;;;;;;17.98;10.95;;;;;;;20.15;27.28;102783.94;5240862;28;20026;-76
2022/03/22 16:15:51;;;;;;;18.65;10.40;;;;;;;20.08;27.86;102778.69;5240748;28;20033;-75
2022/03/22 16:18:22;;;;;;;17.77;11.00;;;;;;;19.99;27.63;102780.53;5241149;28;20061;-77
2022/03/22 16:20:54;;;;;;;22.02;11.35;;;;;;;20.00;28.00;102779.41;5244509;28;20472;-75
2022/03/22 16:23:26;;;;;;;58.20;49.85;;;;;;;19.92;28.12;102780.13;5245768;28;20109;-74
2022/03/22 16:25:58;;;;;;;30.50;19.58;;;;;;;19.78;27.22;102780.03;5244867;28;20028;-73
2022/03/22 16:28:29;;;;;;;18.60;12.73;;;;;;;19.74;28.48;102782.66;5244593;28;20113;-73
2022/03/22 16:31:01;;;;;;;18.58;11.65;;;;;;;19.62;27.89;102784.22;5245468;28;20017;-73
2022/03/22 16:36:49;;;;;;;21.92;12.48;;;;;;;19.46;28.37;102790.06;5233518;28;20041;-75
2022/03/22 16:39:25;;;;;;;18.90;12.90;;;;;;;19.34;27.95;102781.22;5241689;28;20051;-75
2022/03/22 16:41:59;;;;;;;21.77;12.57;;;;;;;19.31;28.43;102787.47;5244114;28;20107;-75
2022/03/22 16:44:33;;;;;;;25.45;13.68;;;;;;;19.19;28.39;102784.25;5244883;28;20028;-76
2022/03/22 16:47:10;;;;;;;17.35;13.77;;;;;;;19.12;29.01;102784.59;5244720;28;20021;-75
2022/03/22 16:49:44;;;;;;;20.00;13.38;;;;;;;19.05;29.87;102781.34;5244068;28;20021;-70
2022/03/22 16:52:15;;;;;;;21.00;14.00;;;;;;;18.94;29.79;102786.25;5243903;28;20079;-70
2022/03/22 16:54:47;;;;;;;22.15;14.57;;;;;;;18.89;29.87;102781.53;5244646;28;20018;-71
2022/03/22 16:57:19;;;;;;;24.35;14.50;;;;;;;18.80;29.87;102777.69;5243372;28;20043;-71
2022/03/22 16:59:50;;;;;;;22.33;16.85;;;;;;;18.62;29.90;102781.25;5244462;28;20495;-76
2022/03/22 17:02:22;;;;;;;26.45;16.17;;;;;;;18.59;30.01;102793.09;5244651;28;20022;-75
2022/03/22 17:04:53;;;;;;;20.15;14.93;;;;;;;18.54;30.28;102791.19;5243307;28;20307;-73
2022/03/22 17:07:24;;;;;;;18.00;13.73;;;;;;;18.40;30.38;102787.38;5244071;28;20464;-76
2022/03/22 17:09:56;;;;;;;17.48;13.15;;;;;;;18.34;32.57;102782.94;5243272;28;20083;-76
2022/03/22 17:12:28;;;;;;;21.40;14.07;;;;;;;18.29;31.18;102783.84;5264527;28;20498;-76
2022/03/22 17:15:00;;;;;;;21.38;14.63;;;;;;;18.25;30.87;102789.22;5253688;28;20452;-76
2022/03/22 17:17:31;;;;;;;27.48;15.07;;;;;;;18.20;31.06;102788.41;5243086;28;20034;-75
2022/03/22 17:20:05;;;;;;;15.50;13.55;;;;;;;18.12;31.20;102778.63;5243870;28;20045;-76
2022/03/22 17:22:38;;;;;;;20.30;14.68;;;;;;;18.07;30.95;102792.72;5244410;28;20048;-75
2022/03/22 17:25:10;;;;;;;21.50;14.20;;;;;;;18.00;31.05;102786.63;5243008;28;20029;-75
2022/03/22 17:27:41;;;;;;;20.48;13.60;;;;;;;17.94;31.59;102788.63;5223628;28;20069;-75
2022/03/22 17:30:13;;;;;;;21.23;13.93;;;;;;;17.94;31.34;102793.41;5223086;28;20080;-75
